Louin, MS

06:50 PM CDT on Octobre 22, 2014 (GMT -0500)
Boykinville-Pineville | Change Station
CLOSE
Current Station
Personal Weather Stations
Location: Raleigh, MS
Elevation: 397 ft
Nearby Weather Stations

Elev 397 ft 32.09 °N, 89.44 °W | Updated 10 minutes ago

Clear
Clear
59.0 °F
Feels Like 59.0 °F
N
0.0
Hangin Variable Hangin from NNW

Ngayon
High -- | Low -- °F
--% Chance of Precip.
Yesterday
High -- | Low -- °F
Precip. -- sa
7:05 AM 6:16 PM
Waning Crescent, 1% visible
Pwersa 30.10 sa
Paningin 10.0 milya
Mga Ulap Clear
Hamog 57 °F
Humidito 92%
Rainfall 0.00 sa
Snow Depth Not available.
UV 0 out of 12
Pollen 2.90 out of 12
Air Quality Not available.
Flu Activity No Activity
METAR KMEI 222258Z 36008KT 10SM CLR 19/06 A3010 RMK AO2 SLP191 T01890061

More Conditions Fewer Conditions

Pwersa 30.10 sa
Paningin 10.0 milya
Mga Ulap Clear
Hamog 57 °F
Humidito 92%
Rainfall 0.00 sa
Snow Depth Not available.
UV 0 out of 12
Pollen 2.90 out of 12
Air Quality Not available.
Flu Activity No Activity
METAR KMEI 222258Z 36008KT 10SM CLR 19/06 A3010 RMK AO2 SLP191 T01890061

More Conditions Fewer Conditions

10-Day Weather Forecast

Almanac

Astronomiya

Oct. 22, 2014 Rise Set
Actual Time 7:05 AM CDT 6:16 PM CDT
Civil Twilight 6:40 AM CDT 6:41 PM CDT
Nautical Twilight 6:12 AM CDT 7:09 PM CDT
Astronomical Twilight 5:43 AM CDT 7:38 PM CDT
Buwan 5:51 AM CDT 5:40 PM CDT
Length Of Visible Light 12h 00m
Haba ng Araw
11h 10m
Tomorrow will be 1m 50s shorter.
Waning Crescent, 1% of the Moon is Illuminated
Ngayon
Waning Crescent
Oct 23
New
Oct 30
Unang Quarter
Nov 6
Kabilugan ng Buwan
Nov 14
Last Quarter

Today's Extremes

State Highs State Lows

Community

WunderPhotos

Upload Photos

1,764,080 photos uploaded!

WunderBlogs® & News

Nearby

Snow Depth

Station Depth Elevation
No new snow has been reported.

Earthquake Activity

Siyudad Distance Mag. Time & Date
No recent earthquake activity has been reported nearby.
Minimum magnitude displayed is 2.5.

Coastal Water Temperatures

lugar Temparatura
No Stations Reporting

Nearby Weather Stations